Latest Weather Observations for Bridgetown

IDW60801

Issued at 4:35 pm WST Thursday 2 October 2014 (issued every 30 minutes, with the page automatically refreshed every 10 minutes)

About weather observations | Map of weather stations | Latest weather observations for WA | Other Formats
Station Details ID: 009617 Name: BRIDGETOWN Lat: -33.95 Lon: 116.13 Height: 178.66 m
Data from the previous 72 hours. | See also: Recent months at Bridgetown
Date/Time
WST
Temp
°C
App
Temp
°C
Dew
Point
Rel
Hum
%
Delta-T
°C
Wind Press
QNH
hPa
Press
MSL
hPa
Rain
since 9 am
mm
Dir
 
Spd
km/h
Gust
km/h
Spd
kts
Gust
kts
02/04:30pm 23.1 22.8 14.4 58 5.2 NNW 9 15 5 8 1011.8 1011.7 0.0
02/04:00pm 24.0 23.3 14.4 55 5.7 NNW 11 17 6 9 1011.4 1011.3 0.0
02/03:30pm 24.1 24.4 15.9 60 5.0 N 9 17 5 9 1011.2 1011.1 0.0
02/03:00pm 24.2 23.9 15.4 58 5.3 NNW 11 19 6 10 1011.3 1011.2 0.0
02/02:30pm 24.4 24.0 16.1 60 5.1 N 13 20 7 11 1011.3 1011.2 0.0
02/02:00pm 24.3 22.8 15.2 57 5.5 N 17 24 9 13 1011.4 1011.3 0.0
02/01:30pm 25.0 24.2 15.0 53 6.0 NW 13 22 7 12 1011.5 1011.4 0.0
02/01:00pm 25.2 24.5 15.5 55 5.9 NNW 13 20 7 11 1011.7 1011.6 0.0
02/12:30pm 24.9 23.5 13.5 49 6.7 NW 13 22 7 12 1011.9 1011.8 0.0
02/12:00pm 25.3 24.3 14.7 51 6.4 N 13 22 7 12 1011.9 1011.8 0.0
02/11:30am 24.8 22.8 12.7 47 7.0 NNW 15 24 8 13 1012.0 1011.9 0.0
02/11:00am 24.6 23.3 13.8 51 6.4 N 13 24 7 13 1012.2 1012.1 0.0
02/10:30am 24.1 23.6 13.9 53 6.0 N 9 17 5 9 1012.4 1012.3 0.0
02/10:00am 23.0 23.5 15.1 61 4.7 ENE 6 11 3 6 1012.8 1012.7 0.0
02/09:30am 20.8 21.6 13.7 64 4.1 SSE 2 6 1 3 1013.2 1013.1 0.0
02/09:00am 19.1 18.7 12.4 65 3.8 NE 6 11 3 6 1013.5 1013.4 0.2
02/08:30am 18.8 19.0 13.0 69 3.3 S 4 7 2 4 1013.7 1013.6 0.2
02/08:00am 17.8 18.2 13.7 77 2.3 SSW 4 6 2 3 1013.7 1013.6 0.2
02/07:30am 16.2 18.1 15.7 97 0.3 CALM 0 0 0 0 1013.9 1013.8 0.2
02/07:00am 15.7 16.6 13.9 89 1.0 ENE 2 6 1 3 1013.8 1013.7 0.2
02/06:30am 15.7 16.0 13.4 86 1.3 ESE 4 9 2 5 1014.0 1013.9 0.2
02/06:00am 13.9 15.0 13.6 98 0.2 CALM 0 0 0 0 1013.8 1013.7 0.2
02/05:30am 14.9 15.2 14.6 98 0.2 SSW 6 11 3 6 1013.7 1013.6 0.2
02/05:00am 14.0 15.2 13.7 98 0.2 CALM 0 0 0 0 1014.0 1013.9 0.2
02/04:30am 14.4 15.7 14.1 98 0.2 CALM 0 0 0 0 1014.0 1013.9 0.2
02/04:00am 14.4 15.3 13.9 97 0.3 SSE 2 4 1 2 1014.1 1014.0 0.2
02/03:30am 14.9 15.8 13.9 94 0.6 S 2 6 1 3 1014.1 1014.0 0.2
02/03:00am 16.1 16.4 13.4 84 1.5 S 4 6 2 3 1014.4 1014.3 0.2
02/02:30am 16.5 16.6 12.8 79 2.1 ESE 4 7 2 4 1014.6 1014.6 0.2
02/02:00am 17.3 17.7 12.4 73 2.7 SSW 2 6 1 3 1014.9 1014.8 0.2
02/01:30am 18.4 17.9 11.9 66 3.6 SE 6 9 3 5 1015.5 1015.4 0.2
02/01:00am 19.1 18.9 11.7 62 4.1 S 4 13 2 7 1015.9 1015.8 0.2
02/12:30am 19.9 19.1 11.7 59 4.6 NE 7 17 4 9 1016.5 1016.4 0.2
02/12:00am 17.5 18.7 14.8 84 1.6 NNW 2 9 1 5 1017.2 1017.1 0.2
 
Date/Time
WST
Temp
°C
App
Temp
°C
Dew
Point
Rel
Hum
%
Delta-T
°C
Wind Press
QNH
hPa
Press
MSL
hPa
Rain
since 9 am
mm
Dir
 
Spd
km/h
Gust
km/h
Spd
kts
Gust
kts
01/11:30pm 18.8 18.7 13.4 71 3.1 N 6 7 3 4 1016.9 1016.8 0.0
01/11:00pm 20.8 20.3 10.6 52 5.6 E 4 11 2 6 1017.1 1017.0 0.0
01/10:30pm 21.3 19.8 10.5 50 5.9 ESE 9 17 5 9 1017.0 1016.9 0.0
01/10:00pm 21.5 20.0 10.6 50 6.0 ENE 9 15 5 8 1017.4 1017.3 0.0
01/09:30pm 21.3 21.3 11.1 52 5.7 E 2 6 1 3 1017.3 1017.2 0.0
01/09:00pm 21.3 20.3 11.1 52 5.7 E 7 19 4 10 1017.2 1017.1 0.0
01/08:30pm 21.2 20.7 12.1 56 5.1 ENE 6 9 3 5 1017.5 1017.4 0.0
01/08:00pm 20.9 20.5 12.3 58 4.9 SSE 6 11 3 6 1016.9 1016.8 0.0
01/07:30pm 21.1 20.7 12.5 58 4.9 S 6 9 3 5 1016.8 1016.7 0.0
01/07:00pm 20.1 22.0 15.7 76 2.6 CALM 0 0 0 0 1017.3 1017.2 0.0
01/06:30pm 22.3 23.0 12.3 53 5.7 CALM 0 4 0 2 1017.0 1016.9 0.0
01/06:00pm 22.5 22.7 13.0 55 5.5 SE 4 7 2 4 1016.9 1016.8 0.0
01/05:30pm 23.5 23.2 12.8 51 6.2 SE 6 9 3 5 1017.0 1016.9 0.0
01/05:00pm 23.9 24.0 12.8 49 6.4 E 4 7 2 4 1017.1 1017.0 0.0
01/04:30pm 24.1 23.4 13.3 51 6.3 ENE 9 19 5 10 1017.0 1016.9 0.0
01/04:00pm 24.6 23.5 13.2 49 6.7 NE 11 20 6 11 1016.8 1016.7 0.0
01/03:30pm 24.6 24.0 14.7 54 5.9 NE 11 20 6 11 1017.1 1017.0 0.0
01/03:00pm 24.3 22.9 13.5 51 6.3 NE 13 20 7 11 1017.2 1017.1 0.0
01/02:30pm 24.1 22.9 12.7 49 6.6 NE 11 19 6 10 1017.5 1017.4 0.0
01/02:00pm 24.0 23.8 14.7 56 5.6 E 9 19 5 10 1017.8 1017.7 0.0
01/01:30pm 23.6 23.0 14.6 57 5.4 ESE 11 22 6 12 1018.1 1018.0 0.0
01/01:00pm 23.1 22.5 13.6 55 5.6 E 9 20 5 11 1018.6 1018.5 0.0
01/12:30pm 22.8 22.6 14.6 60 4.9 E 9 17 5 9 1019.3 1019.2 0.0
01/12:00pm 21.8 20.9 13.7 60 4.7 ENE 11 17 6 9 1019.9 1019.9 0.0
01/11:30am 21.0 19.9 13.2 61 4.5 NE 11 20 6 11 1020.4 1020.4 0.0
01/11:00am 20.4 19.4 13.4 64 4.0 NE 11 20 6 11 1020.9 1020.8 0.0
01/10:30am 19.4 18.1 12.4 64 3.9 ENE 11 19 6 10 1021.3 1021.2 0.0
01/10:00am 18.7 18.3 12.9 69 3.3 NNE 7 15 4 8 1021.7 1021.6 0.0
01/09:30am 17.5 17.2 13.4 77 2.3 SE 7 11 4 6 1022.2 1022.1 0.0
01/09:00am 15.7 14.6 12.1 79 2.0 ESE 9 17 5 9 1022.5 1022.4 0.0
01/08:30am 14.3 13.1 11.6 84 1.5 E 9 19 5 10 1022.7 1022.6 0.0
01/08:00am 13.2 13.0 12.9 98 0.2 ESE 6 13 3 7 1023.0 1022.9 0.0
01/07:30am 11.1 11.1 11.1 100 0.0 S 2 7 1 4 1023.2 1023.3 0.0
01/07:00am 8.4 8.0 8.4 100 0.0 CALM 0 0 0 0 1023.4 1023.5 0.0
01/06:30am 5.6 4.6 5.6 100 0.0 CALM 0 0 0 0 1023.0 1023.1 0.0
01/06:00am 5.3 4.2 5.3 100 0.0 CALM 0 0 0 0 1023.0 1023.1 0.0
01/05:30am 5.3 4.2 5.3 100 0.0 CALM 0 0 0 0 1022.7 1022.8 0.0
01/05:00am 5.5 4.5 5.5 100 0.0 CALM 0 0 0 0 1022.8 1022.9 0.0
01/04:30am 6.2 5.3 6.2 100 0.0 CALM 0 0 0 0 1022.9 1023.0 0.0
01/04:00am 5.8 4.8 5.8 100 0.0 CALM 0 0 0 0 1022.9 1023.0 0.0
01/03:30am 5.9 5.0 5.9 100 0.0 CALM 0 0 0 0 1023.1 1023.2 0.0
01/03:00am 6.0 5.1 6.0 100 0.0 CALM 0 0 0 0 1023.2 1023.3 0.0
01/02:30am 6.2 5.3 6.2 100 0.0 CALM 0 0 0 0 1023.2 1023.3 0.0
01/02:00am 6.6 5.8 6.6 100 0.0 CALM 0 0 0 0 1023.5 1023.6 0.0
01/01:30am 6.8 6.1 6.8 100 0.0 CALM 0 0 0 0 1023.6 1023.7 0.0
01/01:00am 6.3 5.5 6.3 100 0.0 CALM 0 0 0 0 1023.7 1023.8 0.0
01/12:30am 7.4 6.8 7.4 100 0.0 CALM 0 4 0 2 1023.7 1023.8 0.0
01/12:00am 6.9 6.2 6.9 100 0.0 CALM 0 0 0 0 1023.8 1023.9 0.0
 
Date/Time
WST
Temp
°C
App
Temp
°C
Dew
Point
Rel
Hum
%
Delta-T
°C
Wind Press
QNH
hPa
Press
MSL
hPa
Rain
since 9 am
mm
Dir
 
Spd
km/h
Gust
km/h
Spd
kts
Gust
kts
30/11:30pm 7.2 6.6 7.2 100 0.0 CALM 0 0 0 0 1023.8 1023.9 0.0
30/11:00pm 7.5 6.9 7.5 100 0.0 CALM 0 0 0 0 1023.7 1023.8 0.0
30/10:30pm 7.9 7.4 7.9 100 0.0 CALM 0 0 0 0 1023.8 1023.9 0.0
30/10:00pm 8.5 8.2 8.5 100 0.0 CALM 0 0 0 0 1024.1 1024.2 0.0
30/09:30pm 8.9 8.7 8.9 100 0.0 CALM 0 0 0 0 1024.1 1024.2 0.0
30/09:00pm 9.1 8.9 9.0 99 0.0 CALM 0 0 0 0 1024.0 1024.1 0.0
30/08:30pm 9.8 9.8 9.7 99 0.1 CALM 0 0 0 0 1024.0 1024.1 0.0
30/08:00pm 10.3 10.4 10.1 99 0.1 CALM 0 0 0 0 1023.9 1024.0 0.0
30/07:30pm 11.2 11.5 10.9 98 0.2 CALM 0 0 0 0 1023.6 1023.7 0.0
30/07:00pm 12.5 13.1 11.9 96 0.3 CALM 0 0 0 0 1023.1 1023.2 0.0
30/06:30pm 14.1 14.3 10.5 79 1.9 CALM 0 2 0 1 1022.9 1023.0 0.0
30/06:00pm 15.6 15.8 10.4 71 2.8 CALM 0 4 0 2 1022.7 1022.8 0.0
30/05:30pm 16.9 15.8 10.1 64 3.6 ENE 6 9 3 5 1022.7 1022.8 0.0
30/05:00pm 17.7 16.6 9.8 60 4.2 SE 6 11 3 6 1022.5 1022.6 0.0
30/04:30pm 18.2 17.8 11.0 63 3.9 E 4 11 2 6 1022.5 1022.6 0.0
30/04:00pm 18.6 17.8 11.2 62 4.0 E 6 11 3 6 1022.6 1022.7 0.0
30/03:30pm 18.1 17.1 10.2 60 4.2 ENE 6 13 3 7 1022.6 1022.7 0.0
30/03:00pm 18.2 17.6 11.7 66 3.6 ESE 6 11 3 6 1022.7 1022.8 0.0
30/02:30pm 18.0 16.7 10.1 60 4.2 E 7 11 4 6 1022.7 1022.8 0.0
30/02:00pm 18.1 17.4 10.0 59 4.3 NE 4 9 2 5 1022.8 1022.9 0.0
30/01:30pm 17.7 16.8 10.8 64 3.7 ENE 6 15 3 8 1022.9 1023.0 0.0
30/01:00pm 17.6 17.3 10.0 61 4.0 SE 2 7 1 4 1023.3 1023.4 0.0
30/12:30pm 18.6 18.4 13.0 70 3.2 SE 6 11 3 6 1023.5 1023.6 0.0
30/12:00pm 16.6 16.4 10.5 67 3.3 NNE 2 7 1 4 1023.7 1023.8 0.0
30/11:30am 16.2 16.2 11.2 72 2.7 WNW 2 9 1 5 1023.8 1023.9 0.0
30/11:00am 15.7 14.3 10.9 73 2.6 SE 9 15 5 8 1024.0 1024.1 0.0
30/10:30am 15.2 13.8 11.0 76 2.3 E 9 17 5 9 1024.2 1024.3 0.0
30/10:00am 14.6 13.8 11.2 80 1.8 SE 6 11 3 6 1024.3 1024.4 0.0
30/09:30am 14.2 13.3 11.4 83 1.5 S 7 13 4 7 1024.2 1024.3 0.0
30/09:00am 14.2 14.0 13.6 96 0.3 S 7 11 4 6 1024.0 1024.1 0.6
30/08:30am 13.2 13.8 13.0 99 0.1 S 2 6 1 3 1023.8 1023.9 0.6
30/08:00am 12.7 12.8 12.7 100 0.0 S 4 6 2 3 1023.6 1023.7 0.6
30/07:30am 12.1 12.4 12.1 100 0.0 S 2 4 1 2 1023.2 1023.3 0.6
30/07:00am 11.4 11.8 11.4 100 0.0 CALM 0 0 0 0 1023.1 1023.2 0.6
30/06:30am 11.2 11.6 11.2 100 0.0 CALM 0 0 0 0 1022.8 1022.9 0.6
30/06:00am 10.9 10.8 10.9 100 0.0 N 2 4 1 2 1022.6 1022.7 0.6
30/05:30am 11.1 11.5 11.1 100 0.0 CALM 0 0 0 0 1022.3 1022.4 0.6
30/05:00am 11.1 11.5 11.1 100 0.0 CALM 0 0 0 0 1022.2 1022.2 0.4
30/04:30am 10.9 11.2 10.9 100 0.0 CALM 0 0 0 0 1021.9 1021.9 0.2
30/04:00am 10.8 11.1 10.8 100 0.0 CALM 0 0 0 0 1021.4 1021.4 0.0
30/03:30am 10.8 11.0 10.6 99 0.1 CALM 0 0 0 0 1021.0 1021.0 0.0
30/03:00am 11.3 11.3 11.1 99 0.1 SSW 2 7 1 4 1020.9 1020.9 0.0
30/02:30am 11.3 11.3 11.3 100 0.0 W 2 7 1 4 1020.9 1020.9 0.0
30/02:00am 10.6 10.4 10.6 100 0.0 NW 2 7 1 4 1020.9 1020.9 0.0
30/01:30am 10.4 10.6 10.4 100 0.0 CALM 0 0 0 0 1020.9 1020.9 0.0
30/01:00am 10.1 10.2 10.1 100 0.0 CALM 0 0 0 0 1020.9 1020.9 0.0
30/12:30am 10.7 10.9 10.5 99 0.1 CALM 0 0 0 0 1020.8 1020.8 0.0
30/12:00am 10.7 10.9 10.5 99 0.1 CALM 0 0 0 0 1020.7 1020.7 0.0
 
Date/Time
WST
Temp
°C
App
Temp
°C
Dew
Point
Rel
Hum
%
Delta-T
°C
Wind Press
QNH
hPa
Press
MSL
hPa
Rain
since 9 am
mm
Dir
 
Spd
km/h
Gust
km/h
Spd
kts
Gust
kts
29/11:30pm 11.7 11.8 11.4 98 0.2 NNW 2 4 1 2 1020.5 1020.6 0.0
29/11:00pm 11.6 12.0 11.3 98 0.2 CALM 0 0 0 0 1020.7 1020.7 0.0
29/10:30pm 12.1 12.7 11.8 98 0.2 CALM 0 2 0 1 1020.7 1020.7 0.0
29/10:00pm 12.6 12.7 11.5 93 0.6 WNW 2 7 1 4 1020.9 1020.9 0.0
29/09:30pm 12.2 12.2 11.3 94 0.5 SSW 2 4 1 2 1020.9 1020.9 0.0
29/09:00pm 12.4 12.2 10.5 88 1.0 WNW 2 4 1 2 1020.5 1020.6 0.0
29/08:30pm 13.1 12.9 10.3 83 1.5 WSW 2 6 1 3 1020.4 1020.5 0.0
29/08:00pm 13.7 13.1 10.5 81 1.7 WSW 4 11 2 6 1020.3 1020.4 0.0
29/07:30pm 13.5 13.3 10.5 82 1.6 WNW 2 4 1 2 1019.8 1019.9 0.0
29/07:00pm 13.9 14.1 10.5 80 1.8 CALM 0 4 0 2 1019.3 1019.4 0.0
29/06:30pm 14.0 13.1 9.4 74 2.4 WNW 4 7 2 4 1018.6 1018.7 0.0
29/06:00pm 14.9 13.6 9.3 69 2.9 WSW 6 11 3 6 1018.5 1018.6 0.0
29/05:30pm 15.4 13.9 8.6 64 3.5 WSW 6 13 3 7 1018.3 1018.4 0.0
29/05:00pm 15.7 14.2 8.4 62 3.7 WNW 6 11 3 6 1017.5 1017.6 0.0

Other Formats:

Comma delimited format used in spreadsheet applications
http://www.bom.gov.au/fwo/IDW60801/IDW60801.95632.axf

JavaScript Object Notation format (JSON) in row-major order
http://www.bom.gov.au/fwo/IDW60801/IDW60801.95632.json